sensor_id;sensor_type;location;lat;lon;timestamp;P1;durP1;ratioP1;P2;durP2;ratioP2
66609;SDS011;53468;48.276;14.416;2022-12-16T00:03:09;38.15;;;17.90;;
66609;SDS011;53468;48.276;14.416;2022-12-16T00:08:41;39.85;;;18.45;;
66609;SDS011;53468;48.276;14.416;2022-12-16T00:14:15;39.88;;;18.17;;
66609;SDS011;53468;48.276;14.416;2022-12-16T00:19:47;47.13;;;19.85;;
66609;SDS011;53468;48.276;14.416;2022-12-16T00:25:19;40.38;;;18.90;;
66609;SDS011;53468;48.276;14.416;2022-12-16T00:30:53;38.83;;;19.50;;
66609;SDS011;53468;48.276;14.416;2022-12-16T00:36:26;45.05;;;17.73;;
66609;SDS011;53468;48.276;14.416;2022-12-16T00:41:58;41.67;;;16.58;;
66609;SDS011;53468;48.276;14.416;2022-12-16T00:47:31;37.88;;;17.35;;
66609;SDS011;53468;48.276;14.416;2022-12-16T00:53:03;45.15;;;17.98;;
66609;SDS011;53468;48.276;14.416;2022-12-16T00:58:36;48.75;;;19.05;;
66609;SDS011;53468;48.276;14.416;2022-12-16T01:04:09;39.85;;;18.23;;
66609;SDS011;53468;48.276;14.416;2022-12-16T01:09:41;38.45;;;17.75;;
66609;SDS011;53468;48.276;14.416;2022-12-16T01:20:46;45.15;;;19.75;;
66609;SDS011;53468;48.276;14.416;2022-12-16T01:26:19;35.60;;;14.10;;
66609;SDS011;53468;48.276;14.416;2022-12-16T01:31:51;33.40;;;16.33;;
66609;SDS011;53468;48.276;14.416;2022-12-16T01:37:24;36.05;;;16.30;;
66609;SDS011;53468;48.276;14.416;2022-12-16T01:42:57;37.08;;;17.52;;
66609;SDS011;53468;48.276;14.416;2022-12-16T01:48:31;33.22;;;16.95;;
66609;SDS011;53468;48.276;14.416;2022-12-16T01:54:17;38.55;;;16.90;;
66609;SDS011;53468;48.276;14.416;2022-12-16T01:59:52;31.05;;;15.35;;
66609;SDS011;53468;48.276;14.416;2022-12-16T02:05:26;34.92;;;15.68;;
66609;SDS011;53468;48.276;14.416;2022-12-16T02:11:07;35.28;;;15.98;;
66609;SDS011;53468;48.276;14.416;2022-12-16T02:16:59;35.05;;;15.05;;
66609;SDS011;53468;48.276;14.416;2022-12-16T02:22:43;37.75;;;17.23;;
66609;SDS011;53468;48.276;14.416;2022-12-16T02:28:37;32.67;;;15.47;;
66609;SDS011;53468;48.276;14.416;2022-12-16T02:34:27;32.60;;;15.65;;
66609;SDS011;53468;48.276;14.416;2022-12-16T02:40:03;31.67;;;14.98;;
66609;SDS011;53468;48.276;14.416;2022-12-16T02:45:38;32.15;;;15.68;;
66609;SDS011;53468;48.276;14.416;2022-12-16T02:51:12;30.30;;;13.75;;
66609;SDS011;53468;48.276;14.416;2022-12-16T02:56:47;36.15;;;14.02;;
66609;SDS011;53468;48.276;14.416;2022-12-16T03:02:27;26.55;;;13.82;;
66609;SDS011;53468;48.276;14.416;2022-12-16T03:08:06;29.52;;;14.40;;
66609;SDS011;53468;48.276;14.416;2022-12-16T03:13:43;34.72;;;14.27;;
66609;SDS011;53468;48.276;14.416;2022-12-16T03:19:20;29.80;;;13.80;;
66609;SDS011;53468;48.276;14.416;2022-12-16T03:24:56;29.77;;;14.93;;
66609;SDS011;53468;48.276;14.416;2022-12-16T03:30:31;30.25;;;14.23;;
66609;SDS011;53468;48.276;14.416;2022-12-16T03:36:05;32.75;;;14.38;;
66609;SDS011;53468;48.276;14.416;2022-12-16T03:41:44;33.13;;;15.48;;
66609;SDS011;53468;48.276;14.416;2022-12-16T03:47:19;33.03;;;15.43;;
66609;SDS011;53468;48.276;14.416;2022-12-16T03:52:52;37.72;;;16.15;;
66609;SDS011;53468;48.276;14.416;2022-12-16T03:58:25;31.00;;;16.08;;
66609;SDS011;53468;48.276;14.416;2022-12-16T04:03:57;34.75;;;16.08;;
66609;SDS011;53468;48.276;14.416;2022-12-16T04:09:29;31.83;;;15.82;;
66609;SDS011;53468;48.276;14.416;2022-12-16T04:20:53;31.55;;;15.02;;
66609;SDS011;53468;48.276;14.416;2022-12-16T04:26:44;28.70;;;14.98;;
66609;SDS011;53468;48.276;14.416;2022-12-16T04:32:35;33.15;;;15.63;;
66609;SDS011;53468;48.276;14.416;2022-12-16T04:38:25;34.33;;;14.47;;
66609;SDS011;53468;48.276;14.416;2022-12-16T04:44:14;32.78;;;15.80;;
66609;SDS011;53468;48.276;14.416;2022-12-16T04:50:05;29.65;;;14.02;;
66609;SDS011;53468;48.276;14.416;2022-12-16T04:55:55;32.67;;;14.03;;
66609;SDS011;53468;48.276;14.416;2022-12-16T05:01:44;32.47;;;14.77;;
66609;SDS011;53468;48.276;14.416;2022-12-16T05:07:35;34.38;;;15.15;;
66609;SDS011;53468;48.276;14.416;2022-12-16T05:13:24;35.50;;;16.27;;
66609;SDS011;53468;48.276;14.416;2022-12-16T05:19:14;33.00;;;15.63;;
66609;SDS011;53468;48.276;14.416;2022-12-16T05:25:05;32.45;;;15.98;;
66609;SDS011;53468;48.276;14.416;2022-12-16T05:30:56;39.72;;;17.00;;
66609;SDS011;53468;48.276;14.416;2022-12-16T05:36:45;35.03;;;16.63;;
66609;SDS011;53468;48.276;14.416;2022-12-16T05:42:36;36.95;;;18.17;;
66609;SDS011;53468;48.276;14.416;2022-12-16T05:48:22;39.58;;;17.88;;
66609;SDS011;53468;48.276;14.416;2022-12-16T05:54:12;36.28;;;16.95;;
66609;SDS011;53468;48.276;14.416;2022-12-16T06:00:03;31.90;;;17.48;;
66609;SDS011;53468;48.276;14.416;2022-12-16T06:05:53;41.90;;;18.58;;
66609;SDS011;53468;48.276;14.416;2022-12-16T06:11:43;44.42;;;19.90;;
66609;SDS011;53468;48.276;14.416;2022-12-16T06:17:34;42.25;;;19.40;;
66609;SDS011;53468;48.276;14.416;2022-12-16T06:23:23;37.43;;;17.50;;
66609;SDS011;53468;48.276;14.416;2022-12-16T06:29:13;52.78;;;18.08;;
66609;SDS011;53468;48.276;14.416;2022-12-16T06:35:04;36.30;;;18.60;;
66609;SDS011;53468;48.276;14.416;2022-12-16T06:40:54;44.05;;;19.40;;
66609;SDS011;53468;48.276;14.416;2022-12-16T06:46:43;37.53;;;17.58;;
66609;SDS011;53468;48.276;14.416;2022-12-16T06:52:34;29.55;;;17.13;;
66609;SDS011;53468;48.276;14.416;2022-12-16T06:58:23;37.05;;;18.55;;
66609;SDS011;53468;48.276;14.416;2022-12-16T07:04:12;32.97;;;16.73;;
66609;SDS011;53468;48.276;14.416;2022-12-16T07:10:05;34.30;;;16.27;;
66609;SDS011;53468;48.276;14.416;2022-12-16T07:15:55;35.92;;;17.05;;
66609;SDS011;53468;48.276;14.416;2022-12-16T07:21:44;33.55;;;17.30;;
66609;SDS011;53468;48.276;14.416;2022-12-16T07:27:35;34.80;;;15.75;;
66609;SDS011;53468;48.276;14.416;2022-12-16T07:33:27;34.85;;;16.45;;
66609;SDS011;53468;48.276;14.416;2022-12-16T07:39:18;31.92;;;15.98;;
66609;SDS011;53468;48.276;14.416;2022-12-16T07:45:11;30.92;;;15.95;;
66609;SDS011;53468;48.276;14.416;2022-12-16T07:51:01;35.33;;;17.17;;
66609;SDS011;53468;48.276;14.416;2022-12-16T07:56:50;35.38;;;16.83;;
66609;SDS011;53468;48.276;14.416;2022-12-16T08:02:41;30.23;;;15.93;;
66609;SDS011;53468;48.276;14.416;2022-12-16T08:08:30;34.45;;;16.70;;
66609;SDS011;53468;48.276;14.416;2022-12-16T08:14:20;30.25;;;15.85;;
66609;SDS011;53468;48.276;14.416;2022-12-16T08:20:11;35.35;;;16.08;;
66609;SDS011;53468;48.276;14.416;2022-12-16T08:26:01;32.17;;;16.50;;
66609;SDS011;53468;48.276;14.416;2022-12-16T08:31:50;33.42;;;14.48;;
66609;SDS011;53468;48.276;14.416;2022-12-16T08:37:41;35.58;;;15.23;;
66609;SDS011;53468;48.276;14.416;2022-12-16T08:43:36;29.05;;;14.10;;
66609;SDS011;53468;48.276;14.416;2022-12-16T08:49:25;41.33;;;18.92;;
66609;SDS011;53468;48.276;14.416;2022-12-16T08:55:17;43.47;;;15.98;;
66609;SDS011;53468;48.276;14.416;2022-12-16T09:01:07;30.95;;;15.63;;
66609;SDS011;53468;48.276;14.416;2022-12-16T09:06:56;28.02;;;15.55;;
66609;SDS011;53468;48.276;14.416;2022-12-16T09:12:47;30.65;;;15.85;;
66609;SDS011;53468;48.276;14.416;2022-12-16T09:18:36;28.95;;;14.52;;
66609;SDS011;53468;48.276;14.416;2022-12-16T09:24:25;30.05;;;14.20;;
66609;SDS011;53468;48.276;14.416;2022-12-16T09:30:16;35.85;;;15.07;;
66609;SDS011;53468;48.276;14.416;2022-12-16T09:36:06;27.60;;;14.63;;
66609;SDS011;53468;48.276;14.416;2022-12-16T09:41:58;31.48;;;16.00;;
66609;SDS011;53468;48.276;14.416;2022-12-16T09:48:04;26.67;;;15.40;;
66609;SDS011;53468;48.276;14.416;2022-12-16T09:53:58;29.45;;;14.75;;
66609;SDS011;53468;48.276;14.416;2022-12-16T09:59:51;23.92;;;13.50;;
66609;SDS011;53468;48.276;14.416;2022-12-16T10:05:46;24.33;;;12.60;;
66609;SDS011;53468;48.276;14.416;2022-12-16T10:11:57;23.13;;;12.13;;
66609;SDS011;53468;48.276;14.416;2022-12-16T10:17:56;17.17;;;11.63;;
66609;SDS011;53468;48.276;14.416;2022-12-16T10:23:53;22.88;;;12.55;;
66609;SDS011;53468;48.276;14.416;2022-12-16T10:29:50;25.92;;;12.65;;
66609;SDS011;53468;48.276;14.416;2022-12-16T10:35:40;20.92;;;12.27;;
66609;SDS011;53468;48.276;14.416;2022-12-16T10:41:35;20.90;;;12.20;;
66609;SDS011;53468;48.276;14.416;2022-12-16T10:47:26;22.45;;;13.60;;
66609;SDS011;53468;48.276;14.416;2022-12-16T10:53:17;19.77;;;12.00;;
66609;SDS011;53468;48.276;14.416;2022-12-16T10:59:12;22.65;;;12.15;;
66609;SDS011;53468;48.276;14.416;2022-12-16T11:05:03;18.95;;;11.18;;
66609;SDS011;53468;48.276;14.416;2022-12-16T11:11:14;18.83;;;10.82;;
66609;SDS011;53468;48.276;14.416;2022-12-16T11:17:12;24.25;;;13.18;;
66609;SDS011;53468;48.276;14.416;2022-12-16T11:23:14;22.77;;;13.10;;
66609;SDS011;53468;48.276;14.416;2022-12-16T11:29:07;21.63;;;12.93;;
66609;SDS011;53468;48.276;14.416;2022-12-16T11:35:00;27.55;;;14.70;;
66609;SDS011;53468;48.276;14.416;2022-12-16T11:40:53;23.23;;;13.00;;
66609;SDS011;53468;48.276;14.416;2022-12-16T11:46:44;22.85;;;13.48;;
66609;SDS011;53468;48.276;14.416;2022-12-16T11:52:35;23.33;;;13.48;;
66609;SDS011;53468;48.276;14.416;2022-12-16T11:58:27;28.00;;;14.88;;
66609;SDS011;53468;48.276;14.416;2022-12-16T12:04:24;24.48;;;13.73;;
66609;SDS011;53468;48.276;14.416;2022-12-16T12:10:25;23.05;;;13.32;;
66609;SDS011;53468;48.276;14.416;2022-12-16T12:16:33;23.27;;;13.82;;
66609;SDS011;53468;48.276;14.416;2022-12-16T12:28:30;26.17;;;14.85;;
66609;SDS011;53468;48.276;14.416;2022-12-16T12:34:30;22.90;;;14.23;;
66609;SDS011;53468;48.276;14.416;2022-12-16T12:40:32;27.50;;;15.35;;
66609;SDS011;53468;48.276;14.416;2022-12-16T12:46:31;22.73;;;14.25;;
66609;SDS011;53468;48.276;14.416;2022-12-16T12:52:32;26.67;;;15.77;;
66609;SDS011;53468;48.276;14.416;2022-12-16T12:58:37;27.42;;;16.35;;
66609;SDS011;53468;48.276;14.416;2022-12-16T13:04:29;26.65;;;15.77;;
66609;SDS011;53468;48.276;14.416;2022-12-16T13:10:31;24.10;;;14.73;;
66609;SDS011;53468;48.276;14.416;2022-12-16T13:22:47;25.42;;;15.27;;
66609;SDS011;53468;48.276;14.416;2022-12-16T13:28:37;28.67;;;14.63;;
66609;SDS011;53468;48.276;14.416;2022-12-16T13:34:29;23.17;;;13.27;;
66609;SDS011;53468;48.276;14.416;2022-12-16T13:40:46;28.73;;;16.73;;
66609;SDS011;53468;48.276;14.416;2022-12-16T13:46:39;27.90;;;14.73;;
66609;SDS011;53468;48.276;14.416;2022-12-16T13:52:36;30.25;;;16.42;;
66609;SDS011;53468;48.276;14.416;2022-12-16T13:58:35;27.35;;;16.10;;
66609;SDS011;53468;48.276;14.416;2022-12-16T14:04:26;29.25;;;16.30;;
66609;SDS011;53468;48.276;14.416;2022-12-16T14:10:21;25.58;;;14.23;;
66609;SDS011;53468;48.276;14.416;2022-12-16T14:16:14;29.58;;;17.50;;
66609;SDS011;53468;48.276;14.416;2022-12-16T14:22:13;26.27;;;16.02;;
66609;SDS011;53468;48.276;14.416;2022-12-16T14:28:16;29.13;;;16.23;;
66609;SDS011;53468;48.276;14.416;2022-12-16T14:34:14;29.65;;;17.17;;
66609;SDS011;53468;48.276;14.416;2022-12-16T14:40:18;30.02;;;18.00;;
66609;SDS011;53468;48.276;14.416;2022-12-16T14:52:17;29.58;;;16.27;;
66609;SDS011;53468;48.276;14.416;2022-12-16T14:58:10;34.25;;;17.65;;
66609;SDS011;53468;48.276;14.416;2022-12-16T15:04:01;32.08;;;19.10;;
66609;SDS011;53468;48.276;14.416;2022-12-16T15:09:55;30.10;;;17.33;;
66609;SDS011;53468;48.276;14.416;2022-12-16T15:15:45;34.53;;;19.17;;
66609;SDS011;53468;48.276;14.416;2022-12-16T15:21:36;32.08;;;18.85;;
66609;SDS011;53468;48.276;14.416;2022-12-16T15:27:32;33.33;;;18.95;;
66609;SDS011;53468;48.276;14.416;2022-12-16T15:33:24;31.20;;;17.70;;
66609;SDS011;53468;48.276;14.416;2022-12-16T15:39:17;37.58;;;21.67;;
66609;SDS011;53468;48.276;14.416;2022-12-16T15:45:16;38.80;;;17.73;;
66609;SDS011;53468;48.276;14.416;2022-12-16T15:51:27;41.10;;;20.88;;
66609;SDS011;53468;48.276;14.416;2022-12-16T15:57:27;37.50;;;18.98;;
66609;SDS011;53468;48.276;14.416;2022-12-16T16:03:24;33.65;;;18.80;;
66609;SDS011;53468;48.276;14.416;2022-12-16T16:09:18;41.08;;;18.60;;
66609;SDS011;53468;48.276;14.416;2022-12-16T16:15:10;34.05;;;17.52;;
66609;SDS011;53468;48.276;14.416;2022-12-16T16:21:02;32.25;;;18.38;;
66609;SDS011;53468;48.276;14.416;2022-12-16T16:26:52;35.87;;;19.23;;
66609;SDS011;53468;48.276;14.416;2022-12-16T16:32:41;36.15;;;19.30;;
66609;SDS011;53468;48.276;14.416;2022-12-16T16:38:33;40.72;;;19.33;;
66609;SDS011;53468;48.276;14.416;2022-12-16T16:44:22;42.22;;;22.30;;
66609;SDS011;53468;48.276;14.416;2022-12-16T16:50:12;39.42;;;21.83;;
66609;SDS011;53468;48.276;14.416;2022-12-16T16:56:04;40.35;;;21.25;;
66609;SDS011;53468;48.276;14.416;2022-12-16T17:01:56;44.03;;;19.45;;
66609;SDS011;53468;48.276;14.416;2022-12-16T17:07:49;40.97;;;18.40;;
66609;SDS011;53468;48.276;14.416;2022-12-16T17:13:40;31.90;;;17.63;;
66609;SDS011;53468;48.276;14.416;2022-12-16T17:19:32;39.55;;;19.65;;
66609;SDS011;53468;48.276;14.416;2022-12-16T17:25:22;47.28;;;22.48;;
66609;SDS011;53468;48.276;14.416;2022-12-16T17:31:13;45.65;;;20.80;;
66609;SDS011;53468;48.276;14.416;2022-12-16T17:37:02;43.42;;;21.67;;
66609;SDS011;53468;48.276;14.416;2022-12-16T17:42:51;49.40;;;23.40;;
66609;SDS011;53468;48.276;14.416;2022-12-16T17:48:42;51.08;;;26.25;;
66609;SDS011;53468;48.276;14.416;2022-12-16T17:54:32;52.95;;;27.08;;
66609;SDS011;53468;48.276;14.416;2022-12-16T18:00:21;53.90;;;26.38;;
66609;SDS011;53468;48.276;14.416;2022-12-16T18:06:14;49.60;;;24.88;;
66609;SDS011;53468;48.276;14.416;2022-12-16T18:12:04;58.95;;;28.23;;
66609;SDS011;53468;48.276;14.416;2022-12-16T18:17:54;50.60;;;27.20;;
66609;SDS011;53468;48.276;14.416;2022-12-16T18:23:44;57.13;;;26.05;;
66609;SDS011;53468;48.276;14.416;2022-12-16T18:29:34;49.58;;;24.80;;
66609;SDS011;53468;48.276;14.416;2022-12-16T18:35:23;49.70;;;24.65;;
66609;SDS011;53468;48.276;14.416;2022-12-16T18:41:15;50.28;;;23.52;;
66609;SDS011;53468;48.276;14.416;2022-12-16T18:47:08;53.55;;;24.08;;
66609;SDS011;53468;48.276;14.416;2022-12-16T18:52:57;52.92;;;25.02;;
66609;SDS011;53468;48.276;14.416;2022-12-16T18:58:48;60.00;;;27.00;;
66609;SDS011;53468;48.276;14.416;2022-12-16T19:04:38;55.13;;;25.00;;
66609;SDS011;53468;48.276;14.416;2022-12-16T19:10:27;53.10;;;26.73;;
66609;SDS011;53468;48.276;14.416;2022-12-16T19:16:18;48.20;;;23.15;;
66609;SDS011;53468;48.276;14.416;2022-12-16T19:22:08;51.08;;;25.77;;
66609;SDS011;53468;48.276;14.416;2022-12-16T19:27:57;44.67;;;22.58;;
66609;SDS011;53468;48.276;14.416;2022-12-16T19:33:48;51.97;;;25.92;;
66609;SDS011;53468;48.276;14.416;2022-12-16T19:39:41;57.60;;;26.85;;
66609;SDS011;53468;48.276;14.416;2022-12-16T19:45:30;53.47;;;27.42;;
66609;SDS011;53468;48.276;14.416;2022-12-16T19:51:21;54.05;;;27.38;;
66609;SDS011;53468;48.276;14.416;2022-12-16T19:57:11;49.57;;;23.33;;
66609;SDS011;53468;48.276;14.416;2022-12-16T20:03:01;51.70;;;24.75;;
66609;SDS011;53468;48.276;14.416;2022-12-16T20:08:52;59.03;;;27.63;;
66609;SDS011;53468;48.276;14.416;2022-12-16T20:14:42;50.92;;;23.90;;
66609;SDS011;53468;48.276;14.416;2022-12-16T20:20:32;56.03;;;26.15;;
66609;SDS011;53468;48.276;14.416;2022-12-16T20:26:23;48.88;;;24.88;;
66609;SDS011;53468;48.276;14.416;2022-12-16T20:32:12;51.20;;;25.20;;
66609;SDS011;53468;48.276;14.416;2022-12-16T20:38:02;47.53;;;23.42;;
66609;SDS011;53468;48.276;14.416;2022-12-16T20:43:53;50.67;;;25.30;;
66609;SDS011;53468;48.276;14.416;2022-12-16T20:49:42;55.33;;;25.08;;
66609;SDS011;53468;48.276;14.416;2022-12-16T20:55:32;57.03;;;24.60;;
66609;SDS011;53468;48.276;14.416;2022-12-16T21:01:22;55.00;;;25.33;;
66609;SDS011;53468;48.276;14.416;2022-12-16T21:07:12;55.20;;;26.42;;
66609;SDS011;53468;48.276;14.416;2022-12-16T21:13:05;49.92;;;23.33;;
66609;SDS011;53468;48.276;14.416;2022-12-16T21:18:56;57.63;;;24.67;;
66609;SDS011;53468;48.276;14.416;2022-12-16T21:24:46;47.50;;;22.73;;
66609;SDS011;53468;48.276;14.416;2022-12-16T21:30:36;49.63;;;22.27;;
66609;SDS011;53468;48.276;14.416;2022-12-16T21:36:26;52.45;;;24.70;;
66609;SDS011;53468;48.276;14.416;2022-12-16T21:42:16;47.05;;;22.77;;
66609;SDS011;53468;48.276;14.416;2022-12-16T21:48:05;48.35;;;23.10;;
66609;SDS011;53468;48.276;14.416;2022-12-16T21:54:03;45.53;;;21.85;;
66609;SDS011;53468;48.276;14.416;2022-12-16T21:59:52;55.20;;;24.08;;
66609;SDS011;53468;48.276;14.416;2022-12-16T22:05:42;50.17;;;21.73;;
66609;SDS011;53468;48.276;14.416;2022-12-16T22:11:32;51.00;;;25.60;;
66609;SDS011;53468;48.276;14.416;2022-12-16T22:17:23;55.33;;;24.92;;
66609;SDS011;53468;48.276;14.416;2022-12-16T22:23:12;57.05;;;26.65;;
66609;SDS011;53468;48.276;14.416;2022-12-16T22:29:03;57.28;;;26.25;;
66609;SDS011;53468;48.276;14.416;2022-12-16T22:34:52;47.15;;;22.60;;
66609;SDS011;53468;48.276;14.416;2022-12-16T22:40:42;52.60;;;24.35;;
66609;SDS011;53468;48.276;14.416;2022-12-16T22:46:32;45.22;;;24.35;;
66609;SDS011;53468;48.276;14.416;2022-12-16T22:52:22;56.35;;;25.00;;
66609;SDS011;53468;48.276;14.416;2022-12-16T22:58:11;53.53;;;25.70;;
66609;SDS011;53468;48.276;14.416;2022-12-16T23:04:03;54.63;;;26.48;;
66609;SDS011;53468;48.276;14.416;2022-12-16T23:09:55;59.50;;;25.83;;
66609;SDS011;53468;48.276;14.416;2022-12-16T23:15:48;48.78;;;24.35;;
66609;SDS011;53468;48.276;14.416;2022-12-16T23:21:38;55.17;;;23.60;;
66609;SDS011;53468;48.276;14.416;2022-12-16T23:27:27;42.80;;;21.58;;
66609;SDS011;53468;48.276;14.416;2022-12-16T23:33:17;49.92;;;23.42;;
66609;SDS011;53468;48.276;14.416;2022-12-16T23:39:08;52.88;;;23.45;;
66609;SDS011;53468;48.276;14.416;2022-12-16T23:44:57;48.33;;;22.10;;
66609;SDS011;53468;48.276;14.416;2022-12-16T23:50:46;49.17;;;22.45;;
66609;SDS011;53468;48.276;14.416;2022-12-16T23:56:37;47.35;;;22.42;;
